createdAt,value
2023-12-24T00:01:15.072Z,4.43
2023-12-24T00:03:16.795Z,6.22
2023-12-24T00:05:18.527Z,10.40
2023-12-24T00:07:20.326Z,7.07
2023-12-24T00:09:21.898Z,5.22
2023-12-24T00:11:23.544Z,7.15
2023-12-24T00:13:27.160Z,6.65
2023-12-24T00:15:28.819Z,4.70
2023-12-24T00:17:30.839Z,5.97
2023-12-24T00:19:32.463Z,5.25
2023-12-24T00:21:34.052Z,5.05
2023-12-24T00:23:35.664Z,4.75
2023-12-24T00:25:38.633Z,5.00
2023-12-24T00:27:40.170Z,4.60
2023-12-24T00:29:41.724Z,5.55
2023-12-24T00:31:43.310Z,7.10
2023-12-24T00:33:45.111Z,6.30
2023-12-24T00:35:48.142Z,5.63
2023-12-24T00:37:50.816Z,6.10
2023-12-24T00:39:52.416Z,6.28
2023-12-24T00:41:54.013Z,4.97
2023-12-24T00:43:55.652Z,4.55
2023-12-24T00:45:57.247Z,5.43
2023-12-24T00:47:58.996Z,4.07
2023-12-24T00:50:00.881Z,6.15
2023-12-24T00:52:02.478Z,4.90
2023-12-24T00:54:04.118Z,4.60
2023-12-24T00:56:06.191Z,3.72
2023-12-24T00:58:07.781Z,3.42
2023-12-24T01:00:09.863Z,3.63
2023-12-24T01:02:11.563Z,3.13
2023-12-24T01:04:13.442Z,3.58
2023-12-24T01:06:15.247Z,2.97
2023-12-24T01:08:16.970Z,4.00
2023-12-24T01:10:18.597Z,3.38
2023-12-24T01:12:20.420Z,3.30
2023-12-24T01:14:22.129Z,3.25
2023-12-24T01:16:23.768Z,4.18
2023-12-24T01:18:25.511Z,3.28
2023-12-24T01:20:27.159Z,3.67
2023-12-24T01:22:28.824Z,3.25
2023-12-24T01:24:30.404Z,3.53
2023-12-24T01:26:33.705Z,3.47
2023-12-24T01:28:35.506Z,3.78
2023-12-24T01:30:37.244Z,3.03
2023-12-24T01:32:39.223Z,3.50
2023-12-24T01:34:40.870Z,3.78
2023-12-24T01:36:42.604Z,3.55
2023-12-24T01:38:44.327Z,3.67
2023-12-24T01:40:50.825Z,3.95
2023-12-24T01:42:52.801Z,3.40
2023-12-24T01:44:54.511Z,4.68
2023-12-24T01:46:56.293Z,4.05
2023-12-24T01:49:00.424Z,3.42
2023-12-24T01:51:04.254Z,3.80
2023-12-24T01:53:06.271Z,3.63
2023-12-24T01:55:08.543Z,4.15
2023-12-24T01:57:10.297Z,4.95
2023-12-24T01:59:12.422Z,4.47
2023-12-24T02:01:14.163Z,4.60
2023-12-24T02:03:17.331Z,4.07
2023-12-24T02:05:19.529Z,4.30
2023-12-24T02:07:25.447Z,3.75
2023-12-24T02:09:27.101Z,4.00
2023-12-24T02:11:28.785Z,3.67
2023-12-24T02:13:31.613Z,4.13
2023-12-24T02:15:33.596Z,4.15
2023-12-24T02:17:35.912Z,4.95
2023-12-24T02:19:37.961Z,4.60
2023-12-24T02:21:39.563Z,5.15
2023-12-24T02:23:41.246Z,5.03
2023-12-24T02:25:43.530Z,5.13
2023-12-24T02:28:11.563Z,4.68
2023-12-24T02:30:20.118Z,4.15
2023-12-24T02:32:22.665Z,5.00
2023-12-24T02:34:25.095Z,5.18
2023-12-24T02:36:26.869Z,3.83
2023-12-24T02:38:28.699Z,4.55
2023-12-24T02:40:30.305Z,3.72
2023-12-24T02:42:32.102Z,4.30
2023-12-24T02:44:34.798Z,5.05
2023-12-24T02:46:36.517Z,4.45
2023-12-24T02:48:38.330Z,5.15
2023-12-24T02:50:39.967Z,5.20
2023-12-24T02:52:41.659Z,4.88
2023-12-24T02:54:43.348Z,5.03
2023-12-24T02:56:45.195Z,5.93
2023-12-24T02:58:46.830Z,4.47
2023-12-24T03:00:48.468Z,6.47
2023-12-24T03:02:50.482Z,6.35
2023-12-24T03:04:52.336Z,7.13
2023-12-24T03:06:54.087Z,5.80
2023-12-24T03:08:55.674Z,4.78
2023-12-24T03:10:57.311Z,6.80
2023-12-24T03:12:58.926Z,9.30
2023-12-24T03:15:01.119Z,7.43
2023-12-24T03:17:02.852Z,7.03
2023-12-24T03:19:04.637Z,7.25
2023-12-24T03:21:06.392Z,7.15
2023-12-24T03:23:08.002Z,6.47
2023-12-24T03:25:09.625Z,6.82
2023-12-24T03:27:11.229Z,6.20
2023-12-24T03:29:13.850Z,5.93
2023-12-24T03:31:17.950Z,6.25
2023-12-24T03:33:20.068Z,6.35
2023-12-24T03:35:21.736Z,8.98
2023-12-24T03:37:23.626Z,6.97
2023-12-24T03:39:25.228Z,6.38
2023-12-24T03:41:26.893Z,6.03
2023-12-24T03:43:28.879Z,5.63
2023-12-24T03:45:32.550Z,5.40
2023-12-24T03:47:34.365Z,5.68
2023-12-24T03:49:36.071Z,4.55
2023-12-24T03:51:37.780Z,3.80
2023-12-24T03:53:39.946Z,3.85
2023-12-24T03:55:41.709Z,4.13
2023-12-24T03:57:43.267Z,3.72
2023-12-24T03:59:44.889Z,3.97
2023-12-24T04:01:46.516Z,3.33
2023-12-24T04:03:48.401Z,3.45
2023-12-24T04:05:50.681Z,2.95
2023-12-24T04:07:52.723Z,3.10
2023-12-24T04:09:54.423Z,2.90
2023-12-24T04:11:56.106Z,2.88
2023-12-24T04:13:58.575Z,2.00
2023-12-24T04:16:00.150Z,1.95
2023-12-24T04:18:02.841Z,2.40
2023-12-24T04:20:05.727Z,2.50
2023-12-24T04:22:07.378Z,2.65
2023-12-24T04:24:08.941Z,1.92
2023-12-24T04:26:10.622Z,2.70
2023-12-24T04:28:12.228Z,2.83
2023-12-24T04:30:14.150Z,2.90
2023-12-24T04:32:18.168Z,3.25
2023-12-24T04:34:20.161Z,2.35
2023-12-24T04:36:21.980Z,2.60
2023-12-24T04:38:23.588Z,2.58
2023-12-24T04:40:25.203Z,2.00
2023-12-24T04:42:26.789Z,2.25
2023-12-24T04:44:28.376Z,2.30
2023-12-24T04:46:29.946Z,2.47
2023-12-24T04:48:33.817Z,2.30
2023-12-24T04:50:37.975Z,2.10
2023-12-24T04:52:39.822Z,2.20
2023-12-24T04:54:41.513Z,2.65
2023-12-24T04:56:43.189Z,2.47
2023-12-24T04:58:44.775Z,2.33
2023-12-24T05:00:46.540Z,3.72
2023-12-24T05:02:49.135Z,3.17
2023-12-24T05:04:51.030Z,4.90
2023-12-24T05:06:52.595Z,3.58
2023-12-24T05:08:54.272Z,3.30
2023-12-24T05:10:56.000Z,3.30
2023-12-24T05:12:57.664Z,7.72
2023-12-24T05:15:01.308Z,4.30
2023-12-24T05:17:06.171Z,5.28
2023-12-24T05:19:07.872Z,31.95
2023-12-24T05:21:09.468Z,10.77
2023-12-24T05:23:11.120Z,18.63
2023-12-24T05:25:12.948Z,31.70
2023-12-24T05:27:14.556Z,31.55
2023-12-24T05:29:16.197Z,31.67
2023-12-24T05:31:17.946Z,17.20
2023-12-24T05:33:19.726Z,8.70
2023-12-24T05:35:21.547Z,17.20
2023-12-24T05:37:23.184Z,22.17
2023-12-24T05:39:24.880Z,26.80
2023-12-24T05:41:29.641Z,53.03
2023-12-24T05:43:32.709Z,24.10
2023-12-24T05:45:35.040Z,82.55
2023-12-24T05:47:36.654Z,46.15
2023-12-24T05:49:39.429Z,98.82
2023-12-24T05:51:41.028Z,31.60
2023-12-24T05:53:43.124Z,30.40
2023-12-24T05:55:44.733Z,19.15
2023-12-24T05:57:46.321Z,14.73
2023-12-24T05:59:47.977Z,22.75
2023-12-24T06:01:49.762Z,15.27
2023-12-24T06:03:51.386Z,49.55
2023-12-24T06:05:53.532Z,40.60
2023-12-24T06:07:55.171Z,27.45
2023-12-24T06:09:56.718Z,20.80
2023-12-24T06:11:58.459Z,10.80
2023-12-24T06:14:00.158Z,10.02
2023-12-24T06:16:01.758Z,15.93
2023-12-24T06:18:03.873Z,11.98
2023-12-24T06:20:06.518Z,11.57
2023-12-24T06:22:08.693Z,15.93
2023-12-24T06:24:10.516Z,11.02
2023-12-24T06:26:12.163Z,13.13
2023-12-24T06:28:13.795Z,8.55
2023-12-24T06:30:15.606Z,9.95
2023-12-24T06:32:17.230Z,15.80
2023-12-24T06:34:18.931Z,7.05
2023-12-24T06:36:20.707Z,12.88
2023-12-24T06:38:22.292Z,12.38
2023-12-24T06:40:24.052Z,11.75
2023-12-24T06:42:25.667Z,12.23
2023-12-24T06:44:27.326Z,14.05
2023-12-24T06:46:29.174Z,10.63
2023-12-24T06:48:30.943Z,7.53
2023-12-24T06:50:32.773Z,14.38
2023-12-24T06:52:34.625Z,10.68
2023-12-24T06:54:36.216Z,12.93
2023-12-24T06:56:37.833Z,16.60
2023-12-24T06:58:39.557Z,9.13
2023-12-24T07:00:41.227Z,16.52
2023-12-24T07:02:42.883Z,98.57
2023-12-24T07:04:44.534Z,24.65
2023-12-24T07:06:46.178Z,14.40
2023-12-24T07:08:47.796Z,15.90
2023-12-24T07:10:49.502Z,12.98
2023-12-24T07:12:51.321Z,15.32
2023-12-24T07:14:53.001Z,14.75
2023-12-24T07:16:54.588Z,8.25
2023-12-24T07:18:56.448Z,15.05
2023-12-24T07:20:58.048Z,9.70
2023-12-24T07:23:02.805Z,7.00
2023-12-24T07:25:05.875Z,7.32
2023-12-24T07:27:07.613Z,5.20
2023-12-24T07:29:09.239Z,7.00
2023-12-24T07:31:14.595Z,7.30
2023-12-24T07:33:17.135Z,8.63
2023-12-24T07:35:18.952Z,7.72
2023-12-24T07:37:20.590Z,10.32
2023-12-24T07:39:22.122Z,12.70
2023-12-24T07:41:27.492Z,13.55
2023-12-24T07:43:29.477Z,16.40
2023-12-24T07:45:31.060Z,20.65
2023-12-24T07:47:33.009Z,19.25
2023-12-24T07:49:36.040Z,16.25
2023-12-24T07:51:37.609Z,17.27
2023-12-24T07:53:39.205Z,13.68
2023-12-24T07:55:41.144Z,9.60
2023-12-24T07:57:42.769Z,5.72
2023-12-24T07:59:44.365Z,7.35
2023-12-24T08:01:45.947Z,10.45
2023-12-24T08:03:47.585Z,10.63
2023-12-24T08:05:49.397Z,6.22
2023-12-24T08:07:51.064Z,5.43
2023-12-24T08:09:52.715Z,7.50
2023-12-24T08:11:54.309Z,6.28
2023-12-24T08:13:55.884Z,5.10
2023-12-24T08:15:57.549Z,5.70
2023-12-24T08:17:59.476Z,5.40
2023-12-24T08:20:01.178Z,4.32
2023-12-24T08:22:04.091Z,5.32
2023-12-24T08:24:05.906Z,7.22
2023-12-24T08:26:07.784Z,8.00
2023-12-24T08:28:09.476Z,9.63
2023-12-24T08:30:11.895Z,15.50
2023-12-24T08:32:13.583Z,14.27
2023-12-24T08:34:15.517Z,7.40
2023-12-24T08:36:17.338Z,9.90
2023-12-24T08:38:19.052Z,8.70
2023-12-24T08:40:20.764Z,10.23
2023-12-24T08:42:22.311Z,17.90
2023-12-24T08:44:23.857Z,13.77
2023-12-24T08:46:25.549Z,15.02
2023-12-24T08:48:27.568Z,15.95
2023-12-24T08:50:29.263Z,17.92
2023-12-24T08:52:30.893Z,18.50
2023-12-24T08:54:32.469Z,12.63
2023-12-24T08:56:35.514Z,29.33
2023-12-24T08:58:37.253Z,28.25
2023-12-24T09:00:38.875Z,20.63
2023-12-24T09:02:40.704Z,19.15
2023-12-24T09:04:42.402Z,24.20
2023-12-24T09:06:45.087Z,22.90
2023-12-24T09:08:46.879Z,23.40
2023-12-24T09:10:48.586Z,25.88
2023-12-24T09:12:50.807Z,18.73
2023-12-24T09:14:52.569Z,20.02
2023-12-24T09:16:54.115Z,26.30
2023-12-24T09:18:55.742Z,21.90
2023-12-24T09:20:57.447Z,21.25
2023-12-24T09:22:59.168Z,22.58
2023-12-24T09:25:00.816Z,18.70
2023-12-24T09:27:02.681Z,17.27
2023-12-24T09:29:04.318Z,16.75
2023-12-24T09:31:06.010Z,17.52
2023-12-24T09:33:08.171Z,21.13
2023-12-24T09:35:10.409Z,15.95
2023-12-24T09:37:12.774Z,13.63
2023-12-24T09:39:14.443Z,14.70
2023-12-24T09:41:19.748Z,13.52
2023-12-24T09:43:21.460Z,14.73
2023-12-24T09:45:23.141Z,12.05
2023-12-24T09:47:24.853Z,18.70
2023-12-24T09:49:26.657Z,16.55
2023-12-24T09:51:28.374Z,18.45
2023-12-24T09:53:31.051Z,33.58
2023-12-24T09:55:32.663Z,24.75
2023-12-24T09:57:34.224Z,7.95
2023-12-24T09:59:35.842Z,11.77
2023-12-24T10:01:45.795Z,6.43
2023-12-24T10:03:47.442Z,9.63
2023-12-24T10:06:12.932Z,16.63
2023-12-24T10:08:18.170Z,20.05
2023-12-24T10:10:30.910Z,29.33
2023-12-24T10:12:32.520Z,24.90
2023-12-24T10:14:34.297Z,31.35
2023-12-24T10:16:47.730Z,36.40
2023-12-24T10:18:51.150Z,21.95
2023-12-24T10:21:05.531Z,11.80
2023-12-24T10:23:07.698Z,8.48
2023-12-24T10:25:10.786Z,7.65
2023-12-24T10:27:13.099Z,16.23
2023-12-24T10:29:22.003Z,15.82
2023-12-24T10:31:25.004Z,13.68
2023-12-24T10:33:26.966Z,9.27
2023-12-24T10:35:28.758Z,9.73
2023-12-24T10:37:33.424Z,8.70
2023-12-24T10:39:36.633Z,12.38
2023-12-24T10:41:38.284Z,11.45
2023-12-24T10:43:39.874Z,12.27
2023-12-24T10:45:41.406Z,16.38
2023-12-24T10:47:43.188Z,21.00
2023-12-24T10:49:45.361Z,13.43
2023-12-24T10:51:47.075Z,12.60
2023-12-24T10:53:49.625Z,18.02
2023-12-24T10:56:01.766Z,14.07
2023-12-24T10:58:15.621Z,18.98
2023-12-24T11:00:18.126Z,13.07
2023-12-24T11:02:19.932Z,11.10
2023-12-24T11:04:47.085Z,10.68
2023-12-24T11:06:48.867Z,8.68
2023-12-24T11:08:50.585Z,8.80
2023-12-24T11:11:05.705Z,10.50
2023-12-24T11:13:12.636Z,12.60
2023-12-24T11:15:42.054Z,16.50
2023-12-24T11:17:50.957Z,18.67
2023-12-24T11:19:52.818Z,14.02
2023-12-24T11:22:13.658Z,20.88
2023-12-24T11:24:16.088Z,16.58
2023-12-24T11:26:29.338Z,16.35
2023-12-24T11:28:30.956Z,15.43
2023-12-24T11:30:51.219Z,13.80
2023-12-24T11:32:53.516Z,15.70
2023-12-24T11:34:59.851Z,13.02
2023-12-24T11:37:05.316Z,14.82
2023-12-24T11:39:08.593Z,17.80
2023-12-24T11:41:13.289Z,24.88
2023-12-24T11:43:17.725Z,13.70
2023-12-24T11:45:32.673Z,12.27
2023-12-24T11:47:37.541Z,13.23
2023-12-24T11:49:41.969Z,15.20
2023-12-24T11:51:44.305Z,7.95
2023-12-24T11:53:47.285Z,13.98
2023-12-24T11:56:16.911Z,11.90
2023-12-24T12:00:28.107Z,14.85
2023-12-24T12:02:30.063Z,11.48
2023-12-24T12:04:31.727Z,13.20
2023-12-24T12:06:36.232Z,13.25
2023-12-24T12:08:38.158Z,12.13
2023-12-24T12:10:42.057Z,14.68
2023-12-24T12:12:43.627Z,13.63
2023-12-24T12:14:45.275Z,15.13
2023-12-24T12:16:46.946Z,11.93
2023-12-24T12:18:48.750Z,13.50
2023-12-24T12:20:50.450Z,11.93
2023-12-24T12:22:52.639Z,15.32
2023-12-24T12:24:54.432Z,21.60
2023-12-24T12:26:56.055Z,10.43
2023-12-24T12:28:57.893Z,14.02
2023-12-24T12:31:00.004Z,15.93
2023-12-24T12:33:02.409Z,15.68
2023-12-24T12:35:04.567Z,15.45
2023-12-24T12:37:06.381Z,21.40
2023-12-24T12:39:10.026Z,20.60
2023-12-24T12:41:11.657Z,16.48
2023-12-24T12:43:13.306Z,18.35
2023-12-24T12:45:15.738Z,14.88
2023-12-24T12:47:17.413Z,15.38
2023-12-24T12:49:19.825Z,15.27
2023-12-24T12:51:21.530Z,20.20
2023-12-24T12:53:27.193Z,16.48
2023-12-24T12:55:31.341Z,18.65
2023-12-24T12:57:34.500Z,19.98
2023-12-24T12:59:36.400Z,24.25
2023-12-24T13:01:41.715Z,25.65
2023-12-24T13:04:02.206Z,25.88
2023-12-24T13:06:11.547Z,34.20
2023-12-24T13:10:33.673Z,41.80
2023-12-24T13:12:35.314Z,42.72
2023-12-24T13:14:37.422Z,47.38
2023-12-24T13:16:39.154Z,48.00
2023-12-24T13:18:41.172Z,33.70
2023-12-24T13:20:45.408Z,36.97
2023-12-24T13:22:47.152Z,52.30
2023-12-24T13:24:50.007Z,165.63
2023-12-24T13:26:51.611Z,91.35
2023-12-24T13:28:53.194Z,124.35
2023-12-24T13:30:55.523Z,120.85
2023-12-24T13:32:57.592Z,72.38
2023-12-24T13:34:59.409Z,72.85
2023-12-24T13:37:01.062Z,97.85
2023-12-24T13:39:02.614Z,68.43
2023-12-24T13:41:04.582Z,84.82
2023-12-24T13:43:07.037Z,63.70
2023-12-24T13:45:10.906Z,68.68
2023-12-24T13:47:12.510Z,42.90
2023-12-24T13:49:14.186Z,49.42
2023-12-24T13:51:18.436Z,47.20
2023-12-24T13:53:28.495Z,70.63
2023-12-24T13:55:35.553Z,100.65
2023-12-24T13:57:37.439Z,66.80
2023-12-24T13:59:39.811Z,48.55
2023-12-24T14:01:41.834Z,46.63
2023-12-24T14:03:43.494Z,47.67
2023-12-24T14:05:45.250Z,39.58
2023-12-24T14:07:47.165Z,46.17
2023-12-24T14:09:49.852Z,41.55
2023-12-24T14:11:51.476Z,37.83
2023-12-24T14:13:53.390Z,29.17
2023-12-24T14:15:55.020Z,45.72
2023-12-24T14:17:56.747Z,54.13
2023-12-24T14:19:59.032Z,33.03
2023-12-24T14:22:00.609Z,41.03
2023-12-24T14:24:02.294Z,30.73
2023-12-24T14:26:04.070Z,39.85
2023-12-24T14:28:05.800Z,33.05
2023-12-24T14:30:11.663Z,30.65
2023-12-24T14:32:13.492Z,34.83
2023-12-24T14:34:15.483Z,25.73
2023-12-24T14:36:17.103Z,35.10
2023-12-24T14:38:18.847Z,43.05
2023-12-24T14:40:21.718Z,39.38
2023-12-24T14:42:23.362Z,30.58
2023-12-24T14:44:24.949Z,29.33
2023-12-24T14:46:26.550Z,19.13
2023-12-24T14:48:29.546Z,1.65
2023-12-24T14:50:31.554Z,2.33
2023-12-24T14:52:33.167Z,1.90
2023-12-24T14:54:34.774Z,1.00
2023-12-24T14:56:36.379Z,1.08
2023-12-24T14:58:38.209Z,2.05
2023-12-24T15:00:41.024Z,3.22
2023-12-24T15:02:43.316Z,1.38
2023-12-24T15:04:46.246Z,1.80
2023-12-24T15:06:47.891Z,2.35
2023-12-24T15:08:50.048Z,4.20
2023-12-24T15:10:51.855Z,4.70
2023-12-24T15:12:53.616Z,3.15
2023-12-24T15:14:56.375Z,1.75
2023-12-24T15:16:58.067Z,0.38
2023-12-24T15:18:59.844Z,2.17
2023-12-24T15:21:04.397Z,1.50
2023-12-24T15:23:06.464Z,2.13
2023-12-24T15:25:08.735Z,1.40
2023-12-24T15:27:10.369Z,0.73
2023-12-24T15:29:12.775Z,0.43
2023-12-24T15:31:14.529Z,2.53
2023-12-24T15:33:16.460Z,3.33
2023-12-24T15:35:18.833Z,1.90
2023-12-24T15:37:20.473Z,0.77
2023-12-24T15:39:22.271Z,0.10
2023-12-24T15:41:23.867Z,0.93
2023-12-24T15:43:27.350Z,0.68
2023-12-24T15:45:28.950Z,3.28
2023-12-24T15:47:30.918Z,0.40
2023-12-24T15:49:32.572Z,0.35
2023-12-24T15:51:37.162Z,0.52
2023-12-24T15:53:42.192Z,0.22
2023-12-24T15:55:43.782Z,5.68
2023-12-24T15:57:45.355Z,3.05
2023-12-24T15:59:47.203Z,4.25
2023-12-24T16:01:48.894Z,1.23
2023-12-24T16:03:50.521Z,1.13
2023-12-24T16:05:52.331Z,0.38
2023-12-24T16:07:54.050Z,1.45
2023-12-24T16:09:55.618Z,1.75
2023-12-24T16:11:57.306Z,0.10
2023-12-24T16:13:59.739Z,0.22
2023-12-24T16:16:01.476Z,0.10
2023-12-24T16:18:03.536Z,1.40
2023-12-24T16:20:09.649Z,3.15
2023-12-24T16:22:12.151Z,1.70
2023-12-24T16:24:13.776Z,0.10
2023-12-24T16:26:15.370Z,0.60
2023-12-24T16:28:17.043Z,0.52
2023-12-24T16:30:18.651Z,2.95
2023-12-24T16:32:21.173Z,0.38
2023-12-24T16:34:24.347Z,0.30
2023-12-24T16:36:26.237Z,0.50
2023-12-24T16:38:28.067Z,0.03
2023-12-24T16:40:31.845Z,0.00
2023-12-24T16:42:33.477Z,0.32
2023-12-24T16:44:35.829Z,0.80
2023-12-24T16:46:37.426Z,0.38
2023-12-24T16:48:39.811Z,0.57
2023-12-24T16:50:41.691Z,0.10
2023-12-24T16:52:44.261Z,0.68
2023-12-24T16:54:45.854Z,2.83
2023-12-24T16:56:47.973Z,0.68
2023-12-24T16:58:49.697Z,0.43
2023-12-24T17:00:51.333Z,2.80
2023-12-24T17:02:53.262Z,1.45
2023-12-24T17:04:55.435Z,0.52
2023-12-24T17:06:57.027Z,0.60
2023-12-24T17:08:58.909Z,0.43
2023-12-24T17:11:00.595Z,2.05
2023-12-24T17:13:02.199Z,0.38
2023-12-24T17:15:04.302Z,1.45
2023-12-24T17:17:05.996Z,1.00
2023-12-24T17:19:08.399Z,0.20
2023-12-24T17:21:10.017Z,0.10
2023-12-24T17:23:11.632Z,0.22
2023-12-24T17:25:13.389Z,0.28
2023-12-24T17:27:15.000Z,1.27
2023-12-24T17:29:17.396Z,1.00
2023-12-24T17:31:18.990Z,0.55
2023-12-24T17:33:20.825Z,2.63
2023-12-24T17:35:22.511Z,1.83
2023-12-24T17:37:24.285Z,1.58
2023-12-24T17:39:25.942Z,0.45
2023-12-24T17:41:27.957Z,0.10
2023-12-24T17:43:29.577Z,0.43
2023-12-24T17:45:31.325Z,0.68
2023-12-24T17:47:32.951Z,2.95
2023-12-24T17:49:36.154Z,0.65
2023-12-24T17:51:41.224Z,1.25
2023-12-24T17:53:42.958Z,0.82
2023-12-24T17:55:44.507Z,1.13
2023-12-24T17:57:46.054Z,0.32
2023-12-24T17:59:47.753Z,1.45
2023-12-24T18:01:49.354Z,0.73
2023-12-24T18:03:51.059Z,3.33
2023-12-24T18:05:52.888Z,1.25
2023-12-24T18:07:54.914Z,0.95
2023-12-24T18:09:56.706Z,0.77
2023-12-24T18:11:59.380Z,1.75
2023-12-24T18:14:01.117Z,0.32
2023-12-24T18:16:06.165Z,0.73
2023-12-24T18:18:08.215Z,0.65
2023-12-24T18:20:13.188Z,0.10
2023-12-24T18:22:15.043Z,0.80
2023-12-24T18:24:16.739Z,0.52
2023-12-24T18:26:18.445Z,0.10
2023-12-24T18:28:20.556Z,1.60
2023-12-24T18:30:22.239Z,2.55
2023-12-24T18:32:23.929Z,0.25
2023-12-24T18:34:28.506Z,0.10
2023-12-24T18:36:30.517Z,1.48
2023-12-24T18:38:32.945Z,0.10
2023-12-24T18:40:34.663Z,0.75
2023-12-24T18:42:36.217Z,1.10
2023-12-24T18:44:40.774Z,0.82
2023-12-24T18:46:42.725Z,1.95
2023-12-24T18:48:45.369Z,0.88
2023-12-24T18:50:47.092Z,0.95
2023-12-24T18:52:48.728Z,0.22
2023-12-24T18:54:50.317Z,4.65
2023-12-24T18:56:51.948Z,0.50
2023-12-24T18:58:53.578Z,0.08
2023-12-24T19:00:55.281Z,0.20
2023-12-24T19:02:57.173Z,0.68
2023-12-24T19:04:59.057Z,2.72
2023-12-24T19:07:00.713Z,0.95
2023-12-24T19:09:02.789Z,2.80
2023-12-24T19:11:04.550Z,1.55
2023-12-24T19:13:06.203Z,0.17
2023-12-24T19:15:08.610Z,0.30
2023-12-24T19:17:10.379Z,0.45
2023-12-24T19:19:12.128Z,3.28
2023-12-24T19:21:14.294Z,2.05
2023-12-24T19:23:15.897Z,0.70
2023-12-24T19:25:17.514Z,1.20
2023-12-24T19:27:19.218Z,0.30
2023-12-24T19:29:20.843Z,0.75
2023-12-24T19:31:23.041Z,0.22
2023-12-24T19:33:24.793Z,0.00
2023-12-24T19:35:26.506Z,0.30
2023-12-24T19:37:28.302Z,0.52
2023-12-24T19:39:30.420Z,0.20
2023-12-24T19:41:32.131Z,0.00
2023-12-24T19:43:33.833Z,0.20
2023-12-24T19:45:35.455Z,0.68
2023-12-24T19:47:37.209Z,0.00
2023-12-24T19:49:38.880Z,0.32
2023-12-24T19:51:40.936Z,0.08
2023-12-24T19:53:42.558Z,0.00
2023-12-24T19:55:44.750Z,0.10
2023-12-24T19:57:46.649Z,0.10
2023-12-24T19:59:48.341Z,0.00
2023-12-24T20:01:50.005Z,0.22
2023-12-24T20:03:51.663Z,0.65
2023-12-24T20:05:53.340Z,1.65
2023-12-24T20:07:54.944Z,0.22
2023-12-24T20:09:56.501Z,1.20
2023-12-24T20:11:58.201Z,0.63
2023-12-24T20:14:00.265Z,0.73
2023-12-24T20:16:01.949Z,0.80
2023-12-24T20:18:04.042Z,1.02
2023-12-24T20:20:06.278Z,0.00
2023-12-24T20:22:07.928Z,2.28
2023-12-24T20:24:09.490Z,0.00
2023-12-24T20:26:11.288Z,0.22
2023-12-24T20:28:12.972Z,0.90
2023-12-24T20:30:14.715Z,0.10
2023-12-24T20:32:16.669Z,0.28
2023-12-24T20:34:18.428Z,0.20
2023-12-24T20:36:20.154Z,0.20
2023-12-24T20:38:21.858Z,0.30
2023-12-24T20:40:23.520Z,0.10
2023-12-24T20:42:25.096Z,1.17
2023-12-24T20:44:26.710Z,0.88
2023-12-24T20:46:29.621Z,1.52
2023-12-24T20:48:34.361Z,0.73
2023-12-24T20:50:36.329Z,0.10
2023-12-24T20:52:37.920Z,0.10
2023-12-24T20:54:40.304Z,0.30
2023-12-24T20:56:43.666Z,0.25
2023-12-24T20:58:46.254Z,0.00
2023-12-24T21:00:47.951Z,0.00
2023-12-24T21:02:49.746Z,1.02
2023-12-24T21:04:51.430Z,0.10
2023-12-24T21:06:53.156Z,0.20
2023-12-24T21:08:54.887Z,0.10
2023-12-24T21:10:56.538Z,0.60
2023-12-24T21:12:58.104Z,2.38
2023-12-24T21:14:59.981Z,0.00
2023-12-24T21:17:02.537Z,0.73
2023-12-24T21:19:04.527Z,0.10
2023-12-24T21:21:06.160Z,0.00
2023-12-24T21:23:07.762Z,0.20
2023-12-24T21:25:10.243Z,0.95
2023-12-24T21:27:11.843Z,0.03
2023-12-24T21:29:13.456Z,0.50
2023-12-24T21:31:15.145Z,0.30
2023-12-24T21:33:16.849Z,0.40
2023-12-24T21:35:18.568Z,0.10
2023-12-24T21:37:20.162Z,0.15
2023-12-24T21:39:25.118Z,1.20
2023-12-24T21:41:26.736Z,2.95
2023-12-24T21:43:28.413Z,0.22
2023-12-24T21:45:30.068Z,0.15
2023-12-24T21:47:31.852Z,0.75
2023-12-24T21:49:34.191Z,0.70
2023-12-24T21:51:41.889Z,1.00
2023-12-24T21:53:43.597Z,0.10
2023-12-24T21:55:46.759Z,0.73
2023-12-24T21:57:48.327Z,0.10
2023-12-24T21:59:51.278Z,0.00
2023-12-24T22:01:53.054Z,0.45
2023-12-24T22:03:54.735Z,1.08
2023-12-24T22:05:58.281Z,0.03
2023-12-24T22:08:00.064Z,0.10
2023-12-24T22:10:01.786Z,0.10
2023-12-24T22:12:03.650Z,0.08
2023-12-24T22:14:05.222Z,0.15
2023-12-24T22:16:17.408Z,3.03
2023-12-24T22:18:19.570Z,1.00
2023-12-24T22:20:22.352Z,0.20
2023-12-24T22:22:24.505Z,0.73
2023-12-24T22:24:26.101Z,1.95
2023-12-24T22:26:27.715Z,0.50
2023-12-24T22:28:29.296Z,1.25
2023-12-24T22:30:30.949Z,0.10
2023-12-24T22:32:32.660Z,1.25
2023-12-24T22:34:35.645Z,1.38
2023-12-24T22:36:37.400Z,4.60
2023-12-24T22:38:39.168Z,2.13
2023-12-24T22:40:42.093Z,3.30
2023-12-24T22:42:43.661Z,1.85
2023-12-24T22:44:46.105Z,2.85
2023-12-24T22:46:47.732Z,0.15
2023-12-24T22:48:49.925Z,1.27
2023-12-24T22:50:51.766Z,2.35
2023-12-24T22:52:53.379Z,2.45
2023-12-24T22:54:56.281Z,2.28
2023-12-24T22:56:57.967Z,1.02
2023-12-24T22:58:59.696Z,1.27
2023-12-24T23:01:01.387Z,1.67
2023-12-24T23:03:03.166Z,0.20
2023-12-24T23:05:05.096Z,1.80
2023-12-24T23:07:06.693Z,0.00
2023-12-24T23:09:08.362Z,1.00
2023-12-24T23:11:09.948Z,0.98
2023-12-24T23:13:11.589Z,0.00
2023-12-24T23:15:13.280Z,0.63
2023-12-24T23:17:14.974Z,1.65
2023-12-24T23:19:16.692Z,0.13
2023-12-24T23:21:19.350Z,0.57
2023-12-24T23:23:20.974Z,0.05
2023-12-24T23:25:22.701Z,0.00
2023-12-24T23:27:24.298Z,0.00
2023-12-24T23:29:25.932Z,0.00
2023-12-24T23:31:29.025Z,0.70
2023-12-24T23:33:30.845Z,0.30
2023-12-24T23:35:32.611Z,0.10
2023-12-24T23:37:34.218Z,0.00
2023-12-24T23:39:35.861Z,0.85
2023-12-24T23:41:37.558Z,3.75
2023-12-24T23:43:40.890Z,1.75
2023-12-24T23:45:42.846Z,0.40
2023-12-24T23:47:47.454Z,1.88
2023-12-24T23:49:49.266Z,0.00
2023-12-24T23:51:51.292Z,1.25
2023-12-24T23:53:52.991Z,0.00
2023-12-24T23:55:54.799Z,0.00
2023-12-24T23:57:56.602Z,0.00
